Archival Weather

Heathrow

London, United Kingdom (EGLL)

Report from: Monday, July 18, 2022 9:20 PM BST
Current time: Wednesday, May 29, 2024 9:47 AM BST

Current weather – Weather history – Daily summaries
Weather forecast

Temperature29.0°C (84.2°F)
Heat index28.0°C (82.4°F)
Dew point9.0°C (48.2°F)
Winds 5 kts (2.6 m/s, 5.8 mph) Vrb
Winds variableWinds variable from East-Southeast (110°) to West-Southwest (240°)
Visibility6.2 mi. (10 km)
Clouds Sky clear
Altimeter30.00 in.Hg (1016 mB)
Relative humidity29 %
Density altitude1,682 ft. (513 m)
Remarks Fully automated report
No clouds detected
No significant changes expected in the next two hours
Flight conditions Visual Meteorological Conditions
Raw dataEGLL 182020Z AUTO 17005KT 110V240 9999 NCD 29/09 Q1016 NOSIG
An error has occurred. This application may no longer respond until reloaded. Reload 🗙